createdAt,value
2018-12-31T00:02:19.765Z,9.88
2018-12-31T00:05:09.679Z,9.88
2018-12-31T00:07:59.695Z,9.90
2018-12-31T00:10:50.551Z,9.89
2018-12-31T00:13:40.177Z,9.88
2018-12-31T00:16:30.318Z,9.86
2018-12-31T00:19:20.846Z,9.86
2018-12-31T00:22:10.973Z,9.87
2018-12-31T00:25:00.534Z,9.88
2018-12-31T00:27:50.402Z,9.87
2018-12-31T00:30:40.634Z,9.87
2018-12-31T00:33:30.502Z,9.86
2018-12-31T00:36:20.658Z,9.86
2018-12-31T00:39:10.541Z,9.85
2018-12-31T00:42:00.821Z,9.83
2018-12-31T00:44:51.112Z,9.80
2018-12-31T00:47:41.098Z,9.79
2018-12-31T00:50:31.271Z,9.78
2018-12-31T00:53:20.981Z,9.80
2018-12-31T00:56:10.970Z,9.81
2018-12-31T00:59:00.986Z,9.83
2018-12-31T01:01:50.783Z,9.86
2018-12-31T01:04:40.852Z,9.86
2018-12-31T01:07:30.847Z,9.86
2018-12-31T01:10:20.700Z,9.86
2018-12-31T01:13:10.980Z,9.86
2018-12-31T01:16:00.860Z,9.85
2018-12-31T01:18:50.628Z,9.85
2018-12-31T01:21:40.098Z,9.86
2018-12-31T01:24:30.237Z,9.87
2018-12-31T01:27:20.070Z,9.87
2018-12-31T01:30:10.603Z,9.88
2018-12-31T01:33:00.107Z,9.91
2018-12-31T01:35:49.890Z,9.94
2018-12-31T01:38:39.706Z,9.95
2018-12-31T01:41:29.515Z,9.95
2018-12-31T01:44:19.402Z,9.95
2018-12-31T01:47:09.159Z,9.96
2018-12-31T01:49:59.202Z,9.99
2018-12-31T01:52:49.393Z,9.98
2018-12-31T01:55:39.614Z,9.98
2018-12-31T01:58:29.322Z,9.96
2018-12-31T02:01:19.277Z,9.96
2018-12-31T02:04:09.346Z,9.97
2018-12-31T02:06:59.384Z,9.98
2018-12-31T02:09:48.824Z,9.98
2018-12-31T02:12:38.973Z,9.99
2018-12-31T02:15:29.105Z,9.98
2018-12-31T02:18:19.347Z,9.95
2018-12-31T02:21:09.394Z,9.95
2018-12-31T02:23:59.207Z,9.97
2018-12-31T02:26:48.997Z,9.98
2018-12-31T02:29:38.981Z,9.98
2018-12-31T02:32:28.657Z,9.98
2018-12-31T02:35:18.810Z,9.99
2018-12-31T02:38:09.149Z,9.98
2018-12-31T02:40:58.558Z,9.97
2018-12-31T02:43:48.379Z,10.00
2018-12-31T02:46:38.592Z,10.02
2018-12-31T02:49:28.366Z,10.03
2018-12-31T02:52:18.091Z,10.04
2018-12-31T02:55:08.334Z,10.06
2018-12-31T02:57:58.223Z,10.08
2018-12-31T03:00:48.336Z,10.08
2018-12-31T03:03:38.629Z,10.07
2018-12-31T03:06:28.687Z,10.06
2018-12-31T03:09:18.940Z,10.03
2018-12-31T03:12:08.740Z,10.02
2018-12-31T03:14:58.445Z,10.03
2018-12-31T03:17:48.623Z,10.05
2018-12-31T03:20:49.909Z,10.07
2018-12-31T03:23:39.582Z,10.10
2018-12-31T03:26:29.745Z,9.69
2018-12-31T03:29:19.722Z,10.12
2018-12-31T03:32:09.733Z,10.13
2018-12-31T03:34:59.607Z,10.12
2018-12-31T03:37:49.668Z,10.13
2018-12-31T03:40:40.659Z,10.13
2018-12-31T03:43:30.779Z,10.14
2018-12-31T03:46:20.625Z,10.13
2018-12-31T03:49:10.741Z,10.11
2018-12-31T03:52:00.599Z,10.10
2018-12-31T03:54:50.447Z,10.09
2018-12-31T03:57:40.488Z,10.10
2018-12-31T04:00:30.839Z,10.09
2018-12-31T04:03:20.529Z,10.08
2018-12-31T04:06:10.545Z,10.06
2018-12-31T04:09:00.837Z,10.06
2018-12-31T04:11:51.538Z,10.07
2018-12-31T04:14:41.350Z,10.07
2018-12-31T04:17:30.964Z,10.08
2018-12-31T04:20:20.697Z,10.08
2018-12-31T04:23:10.567Z,10.08
2018-12-31T04:26:00.198Z,10.07
2018-12-31T04:28:50.497Z,10.05
2018-12-31T04:31:40.251Z,10.08
2018-12-31T04:34:30.100Z,10.08
2018-12-31T04:37:20.079Z,10.09
2018-12-31T04:40:09.820Z,10.08
2018-12-31T04:42:59.657Z,10.09
2018-12-31T04:45:49.588Z,10.09
2018-12-31T04:48:39.791Z,10.09
2018-12-31T04:51:29.569Z,10.09
2018-12-31T04:54:19.281Z,10.09
2018-12-31T04:57:09.211Z,10.08
2018-12-31T04:59:59.307Z,10.06
2018-12-31T05:02:49.293Z,10.07
2018-12-31T05:05:39.367Z,10.06
2018-12-31T05:08:29.127Z,10.06
2018-12-31T05:11:20.149Z,10.07
2018-12-31T05:14:10.138Z,10.08
2018-12-31T05:17:00.609Z,10.08
2018-12-31T05:19:50.594Z,10.09
2018-12-31T05:22:40.465Z,10.10
2018-12-31T05:25:30.541Z,10.09
2018-12-31T05:28:20.094Z,10.10
2018-12-31T05:31:10.319Z,10.10
2018-12-31T05:34:00.304Z,10.10
2018-12-31T05:36:50.463Z,10.09
2018-12-31T05:39:40.345Z,10.08
2018-12-31T05:42:30.375Z,10.07
2018-12-31T05:45:20.590Z,10.05
2018-12-31T05:48:10.653Z,10.07
2018-12-31T05:51:00.415Z,10.04
2018-12-31T05:53:50.853Z,10.03
2018-12-31T05:56:41.045Z,10.03
2018-12-31T05:59:31.007Z,9.99
2018-12-31T06:02:20.952Z,9.99
2018-12-31T06:05:11.028Z,9.95
2018-12-31T06:08:01.298Z,9.95
2018-12-31T06:10:51.203Z,9.94
2018-12-31T06:13:40.628Z,9.94
2018-12-31T06:16:30.224Z,9.96
2018-12-31T06:19:20.371Z,9.98
2018-12-31T06:22:10.473Z,9.98
2018-12-31T06:25:00.661Z,9.99
2018-12-31T06:27:50.425Z,9.99
2018-12-31T06:30:40.732Z,10.00
2018-12-31T06:33:30.494Z,10.02
2018-12-31T06:36:20.383Z,10.03
2018-12-31T06:39:10.026Z,10.04
2018-12-31T06:41:59.526Z,10.04
2018-12-31T06:44:49.391Z,10.03
2018-12-31T06:47:39.404Z,10.02
2018-12-31T06:50:29.591Z,10.01
2018-12-31T06:53:19.641Z,10.02
2018-12-31T06:56:09.488Z,10.04
2018-12-31T06:58:59.623Z,10.07
2018-12-31T07:01:50.430Z,10.10
2018-12-31T07:04:40.413Z,10.11
2018-12-31T07:07:30.377Z,10.13
2018-12-31T07:10:20.303Z,10.15
2018-12-31T07:13:10.535Z,10.16
2018-12-31T07:16:00.788Z,10.16
2018-12-31T07:18:51.261Z,10.16
2018-12-31T07:21:40.743Z,10.14
2018-12-31T07:24:30.577Z,10.12
2018-12-31T07:27:20.542Z,10.09
2018-12-31T07:30:10.469Z,10.07
2018-12-31T07:33:00.669Z,10.05
2018-12-31T07:35:50.461Z,10.01
2018-12-31T07:38:40.438Z,9.98
2018-12-31T07:41:30.734Z,9.97
2018-12-31T07:44:20.621Z,9.97
2018-12-31T07:47:10.933Z,9.98
2018-12-31T07:50:00.615Z,9.98
2018-12-31T07:52:50.468Z,9.97
2018-12-31T07:55:40.388Z,9.99
2018-12-31T07:58:29.877Z,10.02
2018-12-31T08:01:19.524Z,10.05
2018-12-31T08:04:09.940Z,10.08
2018-12-31T08:07:00.028Z,10.08
2018-12-31T08:09:50.176Z,10.11
2018-12-31T08:12:40.288Z,10.12
2018-12-31T08:15:30.337Z,10.15
2018-12-31T08:18:20.137Z,10.18
2018-12-31T08:21:10.058Z,10.20
2018-12-31T08:24:00.144Z,10.21
2018-12-31T08:26:50.230Z,10.23
2018-12-31T08:29:40.622Z,10.24
2018-12-31T08:32:30.807Z,10.25
2018-12-31T08:35:20.643Z,10.29
2018-12-31T08:38:10.471Z,10.33
2018-12-31T08:41:00.373Z,10.36
2018-12-31T08:43:50.202Z,10.38
2018-12-31T08:46:40.487Z,10.40
2018-12-31T08:49:30.139Z,10.41
2018-12-31T08:52:20.361Z,10.42
2018-12-31T08:55:10.189Z,10.43
2018-12-31T08:58:01.219Z,10.43
2018-12-31T09:00:51.027Z,10.43
2018-12-31T09:03:41.065Z,10.42
2018-12-31T09:06:31.146Z,10.43
2018-12-31T09:09:21.237Z,10.42
2018-12-31T09:12:10.997Z,10.41
2018-12-31T09:15:01.258Z,10.40
2018-12-31T09:17:51.188Z,10.41
2018-12-31T09:20:40.725Z,10.42
2018-12-31T09:23:30.268Z,10.42
2018-12-31T09:26:19.820Z,10.40
2018-12-31T09:29:09.706Z,10.38
2018-12-31T09:31:59.335Z,10.37
2018-12-31T09:34:49.123Z,10.36
2018-12-31T09:37:39.577Z,10.36
2018-12-31T09:40:29.664Z,10.35
2018-12-31T09:43:18.771Z,9.99
2018-12-31T09:46:08.326Z,10.34
2018-12-31T09:48:58.055Z,10.36
2018-12-31T09:51:47.746Z,10.36
2018-12-31T09:54:37.008Z,10.36
2018-12-31T09:57:27.119Z,10.37
2018-12-31T10:00:17.127Z,10.38
2018-12-31T10:03:06.946Z,10.42
2018-12-31T10:05:56.666Z,10.49
2018-12-31T10:08:49.306Z,10.55
2018-12-31T10:11:38.039Z,10.59
2018-12-31T10:14:28.014Z,10.64
2018-12-31T10:17:18.129Z,10.67
2018-12-31T10:20:08.619Z,10.67
2018-12-31T10:22:58.847Z,10.68
2018-12-31T10:25:48.490Z,10.72
2018-12-31T10:28:38.711Z,10.76
2018-12-31T10:31:28.521Z,10.79
2018-12-31T10:34:18.094Z,10.82
2018-12-31T10:37:08.041Z,10.87
2018-12-31T10:39:58.416Z,10.91
2018-12-31T10:42:48.699Z,10.92
2018-12-31T10:45:38.943Z,10.94
2018-12-31T10:48:29.191Z,10.94
2018-12-31T10:51:18.999Z,10.99
2018-12-31T10:54:09.031Z,11.04
2018-12-31T10:56:59.166Z,11.08
2018-12-31T10:59:49.353Z,11.11
2018-12-31T11:02:39.314Z,11.10
2018-12-31T11:05:29.512Z,11.13
2018-12-31T11:08:19.718Z,11.13
2018-12-31T11:11:09.689Z,11.12
2018-12-31T11:13:59.650Z,11.12
2018-12-31T11:16:50.672Z,11.13
2018-12-31T11:19:40.385Z,11.15
2018-12-31T11:22:30.449Z,11.17
2018-12-31T11:25:20.291Z,11.21
2018-12-31T11:28:10.867Z,11.21
2018-12-31T11:31:01.042Z,11.22
2018-12-31T11:33:51.121Z,11.25
2018-12-31T11:36:42.519Z,11.28
2018-12-31T11:39:32.562Z,11.32
2018-12-31T11:42:22.595Z,11.33
2018-12-31T11:45:12.302Z,11.33
2018-12-31T11:48:02.510Z,11.33
2018-12-31T11:50:52.672Z,11.35
2018-12-31T11:53:42.451Z,11.38
2018-12-31T11:56:32.131Z,11.41
2018-12-31T11:59:22.054Z,11.42
2018-12-31T12:02:12.037Z,11.44
2018-12-31T12:05:02.652Z,11.46
2018-12-31T12:07:52.880Z,11.47
2018-12-31T12:10:42.854Z,11.49
2018-12-31T12:13:32.770Z,11.52
2018-12-31T12:16:22.612Z,11.54
2018-12-31T12:19:16.172Z,11.57
2018-12-31T12:22:05.957Z,11.59
2018-12-31T12:24:56.356Z,11.65
2018-12-31T12:27:45.462Z,11.70
2018-12-31T12:30:35.495Z,11.73
2018-12-31T12:33:25.905Z,11.77
2018-12-31T12:36:16.191Z,11.82
2018-12-31T12:39:08.871Z,11.89
2018-12-31T12:41:58.484Z,11.92
2018-12-31T12:44:48.073Z,11.97
2018-12-31T12:47:37.942Z,12.00
2018-12-31T12:50:28.159Z,12.05
2018-12-31T12:53:17.956Z,12.14
2018-12-31T12:56:07.961Z,12.20
2018-12-31T12:58:58.054Z,12.27
2018-12-31T13:01:48.413Z,12.32
2018-12-31T13:04:38.431Z,12.37
2018-12-31T13:07:27.735Z,12.42
2018-12-31T13:10:17.364Z,12.44
2018-12-31T13:13:06.895Z,12.47
2018-12-31T13:15:56.808Z,12.48
2018-12-31T13:18:48.066Z,12.48
2018-12-31T13:21:38.427Z,12.46
2018-12-31T13:24:28.617Z,12.43
2018-12-31T13:27:18.949Z,12.43
2018-12-31T13:30:10.542Z,12.45
2018-12-31T13:33:01.739Z,12.44
2018-12-31T13:35:51.572Z,12.41
2018-12-31T13:38:41.708Z,12.37
2018-12-31T13:41:32.153Z,12.33
2018-12-31T13:44:22.424Z,12.31
2018-12-31T13:47:12.509Z,12.28
2018-12-31T13:50:01.911Z,12.25
2018-12-31T13:52:51.858Z,12.21
2018-12-31T13:55:42.323Z,12.17
2018-12-31T13:58:32.290Z,12.11
2018-12-31T14:01:21.901Z,12.05
2018-12-31T14:04:11.454Z,12.01
2018-12-31T14:07:00.815Z,11.99
2018-12-31T14:09:51.111Z,11.96
2018-12-31T14:12:40.907Z,11.95
2018-12-31T14:15:30.865Z,11.91
2018-12-31T14:18:21.083Z,11.89
2018-12-31T14:21:11.043Z,11.87
2018-12-31T14:24:01.164Z,11.87
2018-12-31T14:26:51.055Z,11.86
2018-12-31T14:29:41.473Z,11.86
2018-12-31T14:32:31.038Z,11.85
2018-12-31T14:35:21.650Z,11.81
2018-12-31T14:38:12.169Z,11.79
2018-12-31T14:41:02.317Z,11.75
2018-12-31T14:43:52.856Z,11.73
2018-12-31T14:46:43.001Z,11.68
2018-12-31T14:49:33.251Z,11.64
2018-12-31T14:52:23.265Z,11.57
2018-12-31T14:55:13.550Z,11.51
2018-12-31T14:58:03.923Z,11.45
2018-12-31T15:00:53.561Z,11.40
2018-12-31T15:03:43.616Z,11.36
2018-12-31T15:06:34.274Z,11.31
2018-12-31T15:09:24.528Z,11.26
2018-12-31T15:12:14.800Z,11.21
2018-12-31T15:15:04.896Z,11.19
2018-12-31T15:17:54.882Z,11.17
2018-12-31T15:20:46.140Z,11.14
2018-12-31T15:23:36.416Z,11.08
2018-12-31T15:26:26.152Z,11.06
2018-12-31T15:29:16.441Z,11.04
2018-12-31T15:32:06.141Z,11.02
2018-12-31T15:34:56.639Z,11.03
2018-12-31T15:37:46.439Z,11.01
2018-12-31T15:40:36.538Z,10.98
2018-12-31T15:43:26.645Z,10.98
2018-12-31T15:46:20.302Z,10.96
2018-12-31T15:49:08.328Z,10.93
2018-12-31T15:51:58.286Z,10.94
2018-12-31T15:54:48.545Z,10.92
2018-12-31T15:57:38.948Z,10.91
2018-12-31T16:00:28.760Z,10.91
2018-12-31T16:03:18.371Z,10.91
2018-12-31T16:06:08.511Z,10.91
2018-12-31T16:08:58.403Z,10.93
2018-12-31T16:11:48.359Z,10.94
2018-12-31T16:14:38.689Z,10.96
2018-12-31T16:17:31.443Z,10.95
2018-12-31T16:20:21.313Z,10.94
2018-12-31T16:23:11.679Z,10.97
2018-12-31T16:26:01.639Z,10.95
2018-12-31T16:28:51.747Z,10.95
2018-12-31T16:31:42.087Z,10.95
2018-12-31T16:34:33.030Z,10.95
2018-12-31T16:37:23.368Z,10.97
2018-12-31T16:40:13.436Z,10.97
2018-12-31T16:43:03.423Z,10.97
2018-12-31T16:46:01.448Z,10.97
2018-12-31T16:48:51.413Z,10.99
2018-12-31T16:51:41.187Z,11.00
2018-12-31T16:54:31.378Z,11.02
2018-12-31T16:57:21.303Z,11.03
2018-12-31T17:00:11.416Z,11.02
2018-12-31T17:03:01.642Z,11.02
2018-12-31T17:05:51.530Z,11.04
2018-12-31T17:08:41.449Z,11.07
2018-12-31T17:11:31.520Z,11.06
2018-12-31T17:14:21.616Z,11.06
2018-12-31T17:17:11.690Z,11.05
2018-12-31T17:20:01.578Z,11.04
2018-12-31T17:22:51.495Z,11.06
2018-12-31T17:25:41.304Z,11.04
2018-12-31T17:28:31.278Z,11.04
2018-12-31T17:31:21.297Z,11.04
2018-12-31T17:34:12.434Z,11.06
2018-12-31T17:37:02.497Z,11.06
2018-12-31T17:39:51.548Z,11.06
2018-12-31T17:42:41.175Z,11.06
2018-12-31T17:45:31.238Z,11.07
2018-12-31T17:48:20.764Z,11.07
2018-12-31T17:51:10.086Z,11.06
2018-12-31T17:53:59.624Z,11.06
2018-12-31T17:56:50.036Z,11.07
2018-12-31T17:59:39.968Z,11.10
2018-12-31T18:02:29.939Z,11.11
2018-12-31T18:05:20.129Z,11.13
2018-12-31T18:08:10.069Z,11.14
2018-12-31T18:11:00.079Z,11.16
2018-12-31T18:13:50.147Z,11.17
2018-12-31T18:16:39.880Z,11.20
2018-12-31T18:19:29.932Z,11.21
2018-12-31T18:22:20.404Z,11.23
2018-12-31T18:25:10.107Z,11.22
2018-12-31T18:28:02.961Z,11.22
2018-12-31T18:30:53.300Z,11.22
2018-12-31T18:33:42.819Z,11.24
2018-12-31T18:36:32.691Z,11.24
2018-12-31T18:39:22.706Z,11.26
2018-12-31T18:42:12.300Z,11.27
2018-12-31T18:45:03.327Z,11.27
2018-12-31T18:47:53.619Z,11.28
2018-12-31T18:50:43.446Z,11.30
2018-12-31T18:53:33.342Z,11.32
2018-12-31T18:56:23.120Z,11.35
2018-12-31T18:59:12.886Z,11.39
2018-12-31T19:02:02.783Z,11.41
2018-12-31T19:04:53.467Z,11.42
2018-12-31T19:07:43.204Z,11.43
2018-12-31T19:10:33.068Z,11.44
2018-12-31T19:13:23.476Z,11.45
2018-12-31T19:16:13.799Z,11.44
2018-12-31T19:19:03.343Z,11.44
2018-12-31T19:21:53.147Z,11.45
2018-12-31T19:24:43.150Z,11.45
2018-12-31T19:27:33.060Z,11.43
2018-12-31T19:30:23.069Z,11.42
2018-12-31T19:33:13.320Z,11.42
2018-12-31T19:36:03.177Z,11.42
2018-12-31T19:38:53.599Z,11.42
2018-12-31T19:41:43.119Z,11.42
2018-12-31T19:44:33.178Z,11.42
2018-12-31T19:47:25.955Z,11.42
2018-12-31T19:50:16.042Z,11.43
2018-12-31T19:53:06.205Z,11.42
2018-12-31T19:55:56.355Z,11.41
2018-12-31T19:58:45.838Z,11.44
2018-12-31T20:01:35.890Z,11.46
2018-12-31T20:04:25.381Z,11.49
2018-12-31T20:07:14.872Z,11.49
2018-12-31T20:10:04.660Z,11.49
2018-12-31T20:12:54.648Z,11.48
2018-12-31T20:15:48.650Z,11.47
2018-12-31T20:18:36.645Z,11.43
2018-12-31T20:21:26.831Z,11.41
2018-12-31T20:24:17.015Z,11.38
2018-12-31T20:27:07.236Z,11.35
2018-12-31T20:29:57.589Z,11.33
2018-12-31T20:32:47.792Z,11.31
2018-12-31T20:35:37.765Z,11.29
2018-12-31T20:38:27.580Z,11.27
2018-12-31T20:41:17.969Z,11.25
2018-12-31T20:44:07.514Z,11.24
2018-12-31T20:46:57.356Z,11.24
2018-12-31T20:49:47.457Z,11.25
2018-12-31T20:52:37.407Z,11.24
2018-12-31T20:55:27.301Z,11.24
2018-12-31T20:58:17.091Z,11.22
2018-12-31T21:01:07.108Z,11.23
2018-12-31T21:03:56.990Z,11.26
2018-12-31T21:06:49.632Z,11.28
2018-12-31T21:09:39.623Z,11.26
2018-12-31T21:12:29.930Z,11.26
2018-12-31T21:15:19.599Z,8.64
2018-12-31T21:18:09.625Z,11.25
2018-12-31T21:20:59.542Z,11.26
2018-12-31T21:23:49.560Z,11.26
2018-12-31T21:26:39.646Z,11.26
2018-12-31T21:29:29.424Z,11.26
2018-12-31T21:32:19.650Z,11.27
2018-12-31T21:35:10.320Z,11.27
2018-12-31T21:37:59.754Z,11.27
2018-12-31T21:40:49.774Z,11.30
2018-12-31T21:43:39.869Z,11.32
2018-12-31T21:46:30.778Z,11.32
2018-12-31T21:49:20.114Z,11.31
2018-12-31T21:52:10.171Z,11.33
2018-12-31T21:54:59.833Z,11.35
2018-12-31T21:57:49.967Z,11.37
2018-12-31T22:00:39.011Z,11.38
2018-12-31T22:03:28.906Z,11.40
2018-12-31T22:06:18.465Z,11.40
2018-12-31T22:09:09.052Z,11.39
2018-12-31T22:11:58.503Z,11.37
2018-12-31T22:14:48.084Z,11.38
2018-12-31T22:17:37.872Z,11.38
2018-12-31T22:20:28.081Z,11.37
2018-12-31T22:23:18.005Z,11.35
2018-12-31T22:26:08.421Z,11.32
2018-12-31T22:28:58.750Z,11.30
2018-12-31T22:31:48.654Z,11.28
2018-12-31T22:34:38.638Z,11.30
2018-12-31T22:37:28.158Z,11.29
2018-12-31T22:40:17.470Z,11.30
2018-12-31T22:43:10.512Z,11.30
2018-12-31T22:46:00.749Z,11.29
2018-12-31T22:48:50.584Z,11.30
2018-12-31T22:51:41.016Z,11.28
2018-12-31T22:54:30.868Z,11.28
2018-12-31T22:57:21.265Z,11.30
2018-12-31T23:00:12.759Z,11.30
2018-12-31T23:03:04.326Z,11.30
2018-12-31T23:05:54.384Z,11.32
2018-12-31T23:08:44.131Z,11.31
2018-12-31T23:11:34.247Z,11.31
2018-12-31T23:14:24.398Z,11.31
2018-12-31T23:17:17.051Z,11.30
2018-12-31T23:20:08.662Z,11.30
2018-12-31T23:22:58.065Z,11.29
2018-12-31T23:25:47.795Z,11.30
2018-12-31T23:28:38.051Z,11.31
2018-12-31T23:31:28.439Z,11.31
2018-12-31T23:34:18.117Z,11.28
2018-12-31T23:37:07.945Z,11.28
2018-12-31T23:39:57.859Z,11.27
2018-12-31T23:42:47.765Z,11.27
2018-12-31T23:45:37.767Z,11.27
2018-12-31T23:48:27.962Z,11.27
2018-12-31T23:51:17.697Z,11.26
2018-12-31T23:54:07.565Z,11.24
2018-12-31T23:56:57.495Z,11.26
2018-12-31T23:59:47.594Z,11.25
